createdAt,value
2022-11-13T00:02:33.700Z,22.00
2022-11-13T00:05:07.034Z,20.83
2022-11-13T00:07:39.798Z,20.60
2022-11-13T00:10:12.466Z,21.40
2022-11-13T00:12:46.778Z,20.00
2022-11-13T00:15:19.456Z,20.20
2022-11-13T00:17:52.303Z,22.03
2022-11-13T00:20:24.981Z,21.13
2022-11-13T00:22:57.966Z,19.67
2022-11-13T00:25:30.728Z,18.73
2022-11-13T00:28:07.827Z,20.00
2022-11-13T00:30:42.551Z,18.80
2022-11-13T00:33:26.453Z,17.83
2022-11-13T00:36:10.243Z,17.13
2022-11-13T00:38:43.001Z,19.17
2022-11-13T00:41:17.190Z,18.17
2022-11-13T00:43:51.539Z,16.63
2022-11-13T00:46:24.193Z,16.10
2022-11-13T00:48:56.989Z,15.87
2022-11-13T00:51:29.796Z,16.83
2022-11-13T00:54:02.648Z,15.03
2022-11-13T00:56:35.356Z,15.23
2022-11-13T00:59:09.667Z,15.23
2022-11-13T01:01:42.576Z,15.13
2022-11-13T01:04:18.219Z,15.17
2022-11-13T01:06:51.084Z,14.73
2022-11-13T01:09:23.843Z,15.37
2022-11-13T01:11:56.585Z,15.00
2022-11-13T01:14:34.426Z,15.23
2022-11-13T01:17:07.128Z,14.73
2022-11-13T01:19:39.808Z,14.53
2022-11-13T01:22:12.505Z,15.17
2022-11-13T01:24:45.405Z,14.60
2022-11-13T01:27:20.948Z,14.73
2022-11-13T01:29:55.075Z,14.17
2022-11-13T01:32:27.861Z,14.37
2022-11-13T01:35:00.957Z,14.10
2022-11-13T01:37:33.708Z,14.03
2022-11-13T01:40:08.872Z,14.00
2022-11-13T01:42:41.648Z,14.23
2022-11-13T01:45:34.472Z,14.30
2022-11-13T01:48:12.334Z,15.70
2022-11-13T01:50:47.912Z,13.90
2022-11-13T01:53:20.812Z,13.97
2022-11-13T01:55:54.086Z,15.90
2022-11-13T01:58:27.191Z,14.60
2022-11-13T02:01:01.555Z,15.77
2022-11-13T02:03:36.673Z,14.27
2022-11-13T02:06:09.630Z,14.90
2022-11-13T02:08:44.990Z,14.43
2022-11-13T02:11:18.050Z,15.97
2022-11-13T02:13:51.046Z,15.63
2022-11-13T02:16:24.305Z,15.30
2022-11-13T02:18:58.560Z,14.67
2022-11-13T02:21:35.031Z,15.53
2022-11-13T02:24:20.137Z,15.80
2022-11-13T02:26:55.044Z,17.10
2022-11-13T02:29:27.744Z,17.43
2022-11-13T02:32:00.527Z,17.83
2022-11-13T02:34:33.704Z,17.70
2022-11-13T02:37:06.550Z,18.47
2022-11-13T02:39:40.878Z,17.93
2022-11-13T02:42:14.102Z,17.87
2022-11-13T02:44:46.853Z,19.00
2022-11-13T02:47:22.716Z,18.93
2022-11-13T02:49:55.523Z,18.77
2022-11-13T02:52:28.530Z,18.07
2022-11-13T02:55:02.693Z,19.70
2022-11-13T02:57:38.061Z,19.70
2022-11-13T03:00:14.010Z,18.73
2022-11-13T03:02:47.311Z,19.97
2022-11-13T03:05:20.244Z,18.73
2022-11-13T03:07:53.387Z,20.37
2022-11-13T03:10:27.494Z,18.57
2022-11-13T03:13:02.827Z,20.93
2022-11-13T03:15:35.702Z,21.00
2022-11-13T03:18:08.910Z,20.37
2022-11-13T03:20:42.432Z,19.80
2022-11-13T03:23:15.100Z,20.93
2022-11-13T03:25:49.310Z,19.53
2022-11-13T03:28:22.101Z,19.50
2022-11-13T03:30:57.438Z,19.87
2022-11-13T03:33:30.569Z,18.67
2022-11-13T03:36:03.394Z,18.43
2022-11-13T03:38:38.706Z,19.00
2022-11-13T03:41:14.843Z,19.03
2022-11-13T03:43:47.591Z,19.80
2022-11-13T03:46:20.115Z,17.77
2022-11-13T03:48:52.880Z,16.73
2022-11-13T03:51:25.651Z,16.47
2022-11-13T03:53:58.334Z,15.87
2022-11-13T03:56:32.394Z,15.47
2022-11-13T03:59:05.255Z,15.77
2022-11-13T04:01:38.028Z,14.40
2022-11-13T04:04:10.752Z,13.70
2022-11-13T04:06:43.552Z,12.97
2022-11-13T04:09:16.484Z,12.87
2022-11-13T04:11:50.596Z,12.50
2022-11-13T04:14:23.519Z,14.57
2022-11-13T04:16:56.315Z,13.27
2022-11-13T04:19:29.206Z,13.63
2022-11-13T04:22:01.903Z,14.30
2022-11-13T04:24:34.940Z,13.90
2022-11-13T04:27:09.109Z,13.67
2022-11-13T04:29:41.849Z,12.90
2022-11-13T04:32:14.581Z,11.73
2022-11-13T04:34:47.479Z,11.70
2022-11-13T04:37:20.238Z,12.63
2022-11-13T04:39:55.075Z,11.63
2022-11-13T04:42:46.436Z,13.20
2022-11-13T04:45:19.810Z,11.30
2022-11-13T04:47:52.527Z,11.67
2022-11-13T04:50:25.570Z,12.03
2022-11-13T04:52:58.459Z,13.47
2022-11-13T04:55:31.175Z,12.27
2022-11-13T04:58:06.986Z,13.40
2022-11-13T05:00:39.699Z,13.10
2022-11-13T05:03:12.528Z,12.03
2022-11-13T05:05:45.336Z,11.53
2022-11-13T05:08:18.191Z,12.07
2022-11-13T05:10:50.995Z,13.10
2022-11-13T05:13:25.142Z,12.33
2022-11-13T05:16:03.862Z,13.03
2022-11-13T05:18:38.621Z,12.17
2022-11-13T05:21:14.351Z,12.63
2022-11-13T05:23:46.992Z,13.30
2022-11-13T05:26:19.747Z,14.17
2022-11-13T05:28:56.789Z,14.03
2022-11-13T05:31:29.439Z,13.77
2022-11-13T05:34:05.946Z,14.57
2022-11-13T05:36:39.029Z,14.97
2022-11-13T05:39:17.148Z,14.37
2022-11-13T05:41:49.915Z,16.37
2022-11-13T05:44:23.890Z,16.27
2022-11-13T05:46:56.605Z,17.00
2022-11-13T05:49:29.308Z,16.57
2022-11-13T05:52:02.137Z,16.17
2022-11-13T05:54:34.748Z,16.90
2022-11-13T05:57:07.543Z,17.00
2022-11-13T05:59:43.935Z,17.93
2022-11-13T06:02:16.936Z,18.20
2022-11-13T06:04:50.671Z,19.93
2022-11-13T06:07:24.454Z,18.27
2022-11-13T06:09:59.809Z,18.40
2022-11-13T06:12:32.717Z,19.07
2022-11-13T06:15:09.647Z,19.93
2022-11-13T06:17:46.246Z,19.63
2022-11-13T06:20:19.056Z,18.43
2022-11-13T06:22:51.906Z,19.17
2022-11-13T06:25:24.548Z,16.30
2022-11-13T06:27:59.932Z,16.60
2022-11-13T06:30:34.080Z,17.00
2022-11-13T06:33:06.931Z,16.70
2022-11-13T06:35:39.544Z,15.53
2022-11-13T06:38:12.361Z,15.90
2022-11-13T06:40:45.049Z,15.50
2022-11-13T06:43:20.523Z,14.47
2022-11-13T06:45:54.628Z,14.07
2022-11-13T06:48:27.784Z,14.10
2022-11-13T06:51:02.065Z,14.47
2022-11-13T06:53:35.477Z,14.70
2022-11-13T06:56:11.599Z,14.50
2022-11-13T06:58:44.830Z,15.77
2022-11-13T07:01:20.055Z,16.90
2022-11-13T07:03:53.070Z,16.90
2022-11-13T07:06:26.315Z,17.63
2022-11-13T07:08:58.909Z,19.20
2022-11-13T07:11:31.669Z,18.73
2022-11-13T07:14:04.533Z,17.73
2022-11-13T07:17:04.199Z,18.73
2022-11-13T07:19:37.688Z,18.53
2022-11-13T07:22:10.236Z,18.07
2022-11-13T07:24:43.769Z,19.40
2022-11-13T07:27:16.491Z,18.93
2022-11-13T07:29:49.308Z,19.80
2022-11-13T07:32:23.422Z,21.07
2022-11-13T07:34:56.248Z,20.10
2022-11-13T07:37:28.904Z,19.20
2022-11-13T07:40:01.629Z,20.10
2022-11-13T07:42:34.410Z,19.80
2022-11-13T07:45:07.689Z,20.27
2022-11-13T07:47:41.807Z,19.73
2022-11-13T07:50:14.841Z,19.33
2022-11-13T07:52:47.543Z,20.30
2022-11-13T07:55:20.356Z,19.97
2022-11-13T07:57:53.138Z,19.20
2022-11-13T08:00:26.160Z,18.13
2022-11-13T08:03:01.570Z,18.23
2022-11-13T08:05:34.391Z,17.93
2022-11-13T08:08:07.343Z,18.37
2022-11-13T08:10:40.132Z,18.13
2022-11-13T08:13:12.827Z,17.40
2022-11-13T08:15:45.576Z,18.77
2022-11-13T08:18:19.705Z,17.57
2022-11-13T08:20:52.462Z,18.50
2022-11-13T08:23:25.126Z,20.00
2022-11-13T08:25:57.951Z,19.77
2022-11-13T08:28:30.792Z,19.33
2022-11-13T08:31:03.997Z,19.50
2022-11-13T08:33:38.228Z,18.20
2022-11-13T08:36:11.554Z,18.37
2022-11-13T08:38:48.445Z,20.07
2022-11-13T08:41:21.225Z,20.27
2022-11-13T08:43:53.966Z,20.00
2022-11-13T08:46:26.861Z,19.30
2022-11-13T08:49:00.943Z,19.33
2022-11-13T08:51:33.669Z,19.60
2022-11-13T08:54:06.552Z,20.17
2022-11-13T08:56:39.327Z,19.67
2022-11-13T08:59:13.802Z,18.90
2022-11-13T09:01:46.937Z,19.40
2022-11-13T09:04:21.108Z,19.23
2022-11-13T09:06:54.383Z,18.23
2022-11-13T09:09:27.159Z,18.70
2022-11-13T09:11:59.946Z,19.17
2022-11-13T09:14:35.033Z,20.03
2022-11-13T09:17:07.898Z,20.50
2022-11-13T09:19:45.172Z,21.27
2022-11-13T09:22:20.179Z,20.27
2022-11-13T09:24:52.893Z,19.13
2022-11-13T09:27:25.639Z,18.47
2022-11-13T09:29:58.276Z,18.87
2022-11-13T09:32:30.971Z,19.43
2022-11-13T09:35:05.733Z,21.27
2022-11-13T09:37:38.411Z,19.60
2022-11-13T09:40:16.896Z,19.50
2022-11-13T09:42:49.884Z,20.20
2022-11-13T09:45:25.561Z,21.07
2022-11-13T09:48:02.385Z,19.20
2022-11-13T09:50:36.513Z,19.27
2022-11-13T09:53:10.440Z,18.00
2022-11-13T09:55:58.155Z,18.30
2022-11-13T09:58:37.423Z,17.17
2022-11-13T10:01:13.649Z,16.27
2022-11-13T10:04:01.557Z,18.17
2022-11-13T10:06:42.482Z,17.00
2022-11-13T10:09:20.516Z,16.27
2022-11-13T10:11:55.771Z,15.33
2022-11-13T10:14:30.939Z,16.73
2022-11-13T10:17:05.309Z,16.17
2022-11-13T10:19:41.436Z,17.43
2022-11-13T10:22:34.231Z,17.53
2022-11-13T10:25:12.949Z,18.03
2022-11-13T10:27:46.426Z,17.10
2022-11-13T10:30:20.485Z,16.17
2022-11-13T10:32:53.660Z,16.73
2022-11-13T10:35:34.161Z,15.70
2022-11-13T10:38:10.474Z,16.50
2022-11-13T10:40:43.476Z,16.77
2022-11-13T10:43:19.478Z,17.13
2022-11-13T10:45:56.802Z,16.40
2022-11-13T10:48:30.932Z,16.00
2022-11-13T10:51:09.084Z,17.43
2022-11-13T10:53:44.191Z,16.50
2022-11-13T10:56:25.822Z,17.40
2022-11-13T10:59:02.586Z,16.10
2022-11-13T11:01:38.191Z,16.00
2022-11-13T11:04:13.705Z,16.77
2022-11-13T11:07:18.522Z,15.80
2022-11-13T11:09:43.425Z,16.50
2022-11-13T11:12:18.333Z,16.47
2022-11-13T11:15:04.656Z,16.13
2022-11-13T11:17:42.723Z,14.83
2022-11-13T11:20:21.337Z,14.03
2022-11-13T11:22:56.155Z,14.50
2022-11-13T11:25:40.531Z,13.90
2022-11-13T11:28:15.800Z,14.63
2022-11-13T11:30:50.856Z,15.07
2022-11-13T11:33:30.311Z,14.63
2022-11-13T11:36:10.564Z,14.70
2022-11-13T11:38:48.110Z,13.23
2022-11-13T11:41:28.180Z,14.43
2022-11-13T11:44:05.009Z,14.63
2022-11-13T11:46:41.605Z,14.43
2022-11-13T11:49:19.640Z,13.80
2022-11-13T11:52:00.557Z,13.67
2022-11-13T11:54:39.180Z,12.77
2022-11-13T11:57:20.771Z,11.73
2022-11-13T12:00:01.657Z,13.90
2022-11-13T12:02:49.652Z,12.53
2022-11-13T12:05:24.078Z,13.53
2022-11-13T12:08:00.923Z,13.50
2022-11-13T12:10:38.410Z,12.87
2022-11-13T12:13:20.933Z,13.30
2022-11-13T12:15:58.835Z,14.17
2022-11-13T12:18:37.065Z,13.87
2022-11-13T12:21:22.190Z,13.10
2022-11-13T12:24:10.484Z,13.50
2022-11-13T12:26:47.573Z,14.33
2022-11-13T12:29:39.187Z,13.93
2022-11-13T12:32:18.328Z,14.10
2022-11-13T12:34:52.771Z,15.07
2022-11-13T12:37:29.353Z,15.27
2022-11-13T12:40:04.465Z,15.53
2022-11-13T12:42:41.811Z,15.00
2022-11-13T12:45:19.690Z,14.53
2022-11-13T12:47:52.531Z,15.03
2022-11-13T12:50:32.163Z,15.70
2022-11-13T12:53:09.036Z,16.43
2022-11-13T12:55:42.224Z,15.17
2022-11-13T12:58:23.077Z,16.80
2022-11-13T13:01:00.023Z,15.47
2022-11-13T13:03:53.753Z,16.13
2022-11-13T13:06:37.361Z,15.83
2022-11-13T13:09:18.733Z,15.13
2022-11-13T13:11:59.687Z,15.40
2022-11-13T13:14:47.308Z,15.30
2022-11-13T13:17:23.008Z,14.83
2022-11-13T13:19:59.877Z,15.93
2022-11-13T13:22:33.844Z,16.07
2022-11-13T13:25:13.320Z,15.43
2022-11-13T13:27:56.971Z,15.63
2022-11-13T13:30:31.572Z,14.63
2022-11-13T13:33:14.377Z,14.97
2022-11-13T13:35:51.939Z,14.00
2022-11-13T13:38:27.070Z,15.07
2022-11-13T13:41:11.380Z,17.23
2022-11-13T13:43:53.315Z,16.63
2022-11-13T13:46:28.251Z,18.43
2022-11-13T13:49:06.688Z,14.97
2022-11-13T13:51:41.846Z,15.97
2022-11-13T13:54:18.607Z,17.37
2022-11-13T13:56:54.110Z,17.93
2022-11-13T13:59:34.297Z,14.80
2022-11-13T14:02:18.760Z,16.07
2022-11-13T14:04:53.582Z,15.77
2022-11-13T14:07:27.707Z,14.97
2022-11-13T14:10:09.721Z,14.97
2022-11-13T14:12:52.661Z,15.60
2022-11-13T14:15:27.244Z,14.83
2022-11-13T14:18:07.253Z,14.97
2022-11-13T14:20:43.558Z,14.10
2022-11-13T14:23:20.119Z,14.03
2022-11-13T14:25:53.013Z,13.83
2022-11-13T14:28:27.089Z,13.67
2022-11-13T14:31:04.747Z,14.10
2022-11-13T14:33:42.190Z,14.10
2022-11-13T14:36:25.722Z,14.67
2022-11-13T14:39:00.727Z,15.20
2022-11-13T14:41:36.167Z,13.93
2022-11-13T14:44:14.920Z,14.03
2022-11-13T14:46:47.942Z,13.37
2022-11-13T14:49:28.002Z,14.00
2022-11-13T14:52:02.358Z,16.10
2022-11-13T14:57:31.239Z,15.57
2022-11-13T15:00:13.119Z,14.60
2022-11-13T15:02:51.775Z,13.60
2022-11-13T15:05:24.823Z,14.33
2022-11-13T15:07:59.078Z,14.23
2022-11-13T15:10:34.075Z,14.67
2022-11-13T15:13:11.830Z,14.40
2022-11-13T15:15:45.171Z,14.80
2022-11-13T15:18:20.015Z,14.60
2022-11-13T15:20:52.783Z,15.37
2022-11-13T15:23:29.255Z,14.50
2022-11-13T15:26:04.301Z,14.97
2022-11-13T15:28:37.146Z,14.53
2022-11-13T15:31:16.572Z,15.47
2022-11-13T15:33:49.469Z,15.07
2022-11-13T15:36:24.706Z,14.50
2022-11-13T15:39:02.307Z,14.77
2022-11-13T15:41:39.777Z,14.97
2022-11-13T15:44:15.006Z,14.80
2022-11-13T15:46:47.849Z,16.00
2022-11-13T15:49:22.771Z,14.83
2022-11-13T15:51:56.550Z,15.90
2022-11-13T15:54:34.620Z,16.27
2022-11-13T15:57:15.899Z,16.47
2022-11-13T15:59:50.859Z,14.73
2022-11-13T16:02:23.406Z,15.97
2022-11-13T16:04:57.372Z,15.70
2022-11-13T16:07:33.352Z,18.33
2022-11-13T16:10:10.029Z,16.90
2022-11-13T16:12:46.790Z,17.83
2022-11-13T16:15:19.806Z,17.50
2022-11-13T16:17:54.332Z,18.70
2022-11-13T16:20:27.169Z,17.57
2022-11-13T16:23:00.159Z,18.50
2022-11-13T16:25:34.348Z,17.97
2022-11-13T16:28:11.684Z,18.07
2022-11-13T16:30:44.482Z,17.87
2022-11-13T16:33:19.762Z,18.07
2022-11-13T16:35:52.706Z,18.87
2022-11-13T16:38:25.505Z,19.07
2022-11-13T16:40:59.516Z,24.13
2022-11-13T16:43:32.263Z,20.57
2022-11-13T16:46:16.289Z,22.43
2022-11-13T16:48:49.384Z,23.23
2022-11-13T16:51:22.638Z,20.83
2022-11-13T16:53:55.391Z,19.47
2022-11-13T16:56:33.063Z,19.47
2022-11-13T16:59:05.824Z,19.87
2022-11-13T17:01:38.597Z,20.93
2022-11-13T17:04:12.300Z,18.83
2022-11-13T17:06:44.951Z,21.53
2022-11-13T17:09:17.698Z,19.97
2022-11-13T17:11:52.854Z,21.67
2022-11-13T17:14:25.514Z,21.07
2022-11-13T17:16:59.320Z,21.53
2022-11-13T17:19:32.314Z,22.87
2022-11-13T17:22:05.035Z,22.43
2022-11-13T17:24:37.854Z,22.17
2022-11-13T17:27:14.532Z,23.07
2022-11-13T17:29:47.386Z,22.20
2022-11-13T17:32:20.017Z,21.30
2022-11-13T17:34:52.675Z,22.53
2022-11-13T17:37:26.577Z,23.03
2022-11-13T17:39:59.488Z,22.83
2022-11-13T17:42:33.828Z,23.47
2022-11-13T17:45:07.036Z,21.60
2022-11-13T17:47:39.907Z,21.97
2022-11-13T17:50:15.050Z,23.60
2022-11-13T17:52:47.706Z,22.63
2022-11-13T17:55:20.348Z,21.53
2022-11-13T17:57:56.902Z,22.43
2022-11-13T18:00:29.863Z,21.80
2022-11-13T18:03:04.913Z,23.17
2022-11-13T18:05:40.676Z,22.37
2022-11-13T18:08:15.364Z,21.00
2022-11-13T18:10:50.966Z,21.47
2022-11-13T18:13:25.027Z,21.07
2022-11-13T18:16:07.031Z,22.43
2022-11-13T18:18:39.837Z,21.70
2022-11-13T18:21:22.460Z,21.63
2022-11-13T18:23:59.664Z,22.67
2022-11-13T18:26:32.865Z,21.80
2022-11-13T18:29:14.664Z,24.33
2022-11-13T18:31:47.523Z,21.30
2022-11-13T18:34:20.289Z,22.70
2022-11-13T18:36:52.876Z,21.43
2022-11-13T18:39:28.045Z,21.53
2022-11-13T18:42:03.387Z,21.23
2022-11-13T18:44:37.625Z,21.10
2022-11-13T18:47:10.328Z,22.40
2022-11-13T18:49:45.597Z,19.37
2022-11-13T18:52:18.365Z,20.50
2022-11-13T18:54:51.092Z,18.87
2022-11-13T18:57:25.301Z,19.67
2022-11-13T18:59:59.665Z,19.73
2022-11-13T19:02:32.478Z,19.47
2022-11-13T19:05:05.157Z,18.07
2022-11-13T19:07:37.913Z,18.60
2022-11-13T19:10:10.685Z,17.80
2022-11-13T19:12:43.520Z,18.33
2022-11-13T19:15:17.666Z,18.27
2022-11-13T19:17:52.829Z,18.87
2022-11-13T19:20:25.842Z,18.30
2022-11-13T19:22:59.410Z,18.77
2022-11-13T19:25:34.859Z,17.80
2022-11-13T19:28:07.621Z,17.97
2022-11-13T19:30:47.344Z,18.53
2022-11-13T19:33:20.158Z,17.00
2022-11-13T19:35:53.725Z,17.80
2022-11-13T19:38:27.745Z,19.03
2022-11-13T19:41:00.722Z,17.27
2022-11-13T19:43:33.970Z,17.17
2022-11-13T19:46:11.145Z,19.03
2022-11-13T19:48:45.109Z,16.87
2022-11-13T19:51:19.245Z,17.80
2022-11-13T19:53:53.720Z,17.93
2022-11-13T19:56:29.449Z,18.87
2022-11-13T19:59:02.312Z,19.40
2022-11-13T20:01:36.438Z,20.23
2022-11-13T20:04:12.027Z,18.93
2022-11-13T20:06:44.722Z,19.37
2022-11-13T20:09:17.483Z,19.60
2022-11-13T20:11:52.091Z,19.20
2022-11-13T20:14:24.871Z,18.63
2022-11-13T20:16:58.930Z,18.20
2022-11-13T20:19:31.605Z,19.33
2022-11-13T20:22:04.623Z,19.27
2022-11-13T20:24:39.602Z,18.27
2022-11-13T20:27:12.319Z,18.87
2022-11-13T20:29:45.270Z,18.40
2022-11-13T20:32:19.378Z,18.37
2022-11-13T20:34:52.065Z,18.47
2022-11-13T20:37:24.852Z,17.57
2022-11-13T20:39:57.547Z,18.17
2022-11-13T20:42:30.521Z,18.33
2022-11-13T20:45:03.397Z,18.33
2022-11-13T20:47:39.206Z,18.57
2022-11-13T20:50:11.978Z,17.83
2022-11-13T20:52:52.870Z,19.33
2022-11-13T20:55:25.796Z,17.87
2022-11-13T20:57:58.631Z,19.00
2022-11-13T21:00:31.438Z,18.77
2022-11-13T21:03:05.525Z,18.27
2022-11-13T21:05:38.285Z,18.53
2022-11-13T21:08:14.109Z,19.13
2022-11-13T21:10:46.724Z,18.87
2022-11-13T21:13:19.467Z,18.63
2022-11-13T21:15:55.102Z,18.70
2022-11-13T21:18:31.363Z,19.20
2022-11-13T21:21:05.105Z,20.67
2022-11-13T21:23:37.916Z,20.77
2022-11-13T21:26:10.809Z,19.60
2022-11-13T21:28:43.525Z,20.33
2022-11-13T21:31:16.960Z,20.27
2022-11-13T21:33:51.150Z,21.27
2022-11-13T21:36:29.370Z,19.60
2022-11-13T21:39:04.173Z,21.20
2022-11-13T21:41:36.809Z,20.77
2022-11-13T21:44:10.626Z,21.60
2022-11-13T21:46:46.310Z,23.93
2022-11-13T21:49:20.424Z,23.80
2022-11-13T21:51:53.305Z,23.07
2022-11-13T21:54:26.098Z,23.23
2022-11-13T21:56:58.896Z,28.70
2022-11-13T21:59:31.891Z,25.60
2022-11-13T22:02:04.731Z,23.87
2022-11-13T22:04:38.841Z,24.93
2022-11-13T22:07:11.714Z,24.00
2022-11-13T22:09:44.467Z,25.90
2022-11-13T22:12:17.152Z,25.53
2022-11-13T22:14:52.694Z,27.93
2022-11-13T22:17:28.176Z,26.67
2022-11-13T22:20:05.559Z,28.87
2022-11-13T22:22:41.268Z,30.17
2022-11-13T22:25:14.227Z,28.37
2022-11-13T22:27:49.894Z,28.80
2022-11-13T22:30:22.590Z,28.30
2022-11-13T22:32:56.643Z,29.43
2022-11-13T22:35:30.849Z,28.80
2022-11-13T22:38:04.100Z,29.80
2022-11-13T22:40:36.893Z,31.17
2022-11-13T22:43:09.664Z,31.90
2022-11-13T22:45:44.339Z,32.00
2022-11-13T22:48:17.107Z,31.70
2022-11-13T22:50:51.199Z,29.90
2022-11-13T22:53:23.991Z,32.10
2022-11-13T22:56:01.328Z,32.73
2022-11-13T22:58:37.000Z,31.47
2022-11-13T23:01:14.596Z,32.43
2022-11-13T23:03:48.125Z,30.77
2022-11-13T23:06:23.645Z,33.20
2022-11-13T23:08:56.738Z,33.70
2022-11-13T23:11:30.619Z,32.80
2022-11-13T23:14:04.071Z,31.93
2022-11-13T23:16:36.839Z,32.83
2022-11-13T23:19:10.086Z,32.60
2022-11-13T23:21:46.031Z,31.10
2022-11-13T23:24:18.769Z,33.10
2022-11-13T23:26:51.547Z,32.73
2022-11-13T23:29:24.433Z,31.97
2022-11-13T23:31:57.124Z,32.13
2022-11-13T23:34:53.155Z,33.10
2022-11-13T23:37:23.923Z,33.37
2022-11-13T23:39:59.071Z,33.87
2022-11-13T23:42:54.293Z,32.27
2022-11-13T23:45:24.931Z,33.10
2022-11-13T23:47:57.987Z,33.17
2022-11-13T23:50:31.169Z,33.90
2022-11-13T23:53:05.300Z,33.17
2022-11-13T23:55:38.255Z,31.87
2022-11-13T23:58:11.996Z,33.37
